Time;durP1;ratioP1;P1;durP2;ratioP2;P2;SDS_P1;SDS_P2;PMS_P1;PMS_P2;Temp;Humidity;BMP_temperature;BMP_pressure;BME280_temperature;BME280_humidity;BME280_pressure;Samples;Min_cycle;Max_cycle;Signal;HPM_P1;HPM_P2
2022/12/02 00:03:24;;;;;;;;;;;;;;;2.96;100.00;102208.34;5023194;28;19929;-58
2022/12/02 00:05:50;;;;;;;;;;;;;;;2.93;100.00;102199.88;5024966;28;20237;-59
2022/12/02 00:08:27;;;;;;;;;;;;;;;2.92;100.00;102190.31;5025233;28;20378;-59
2022/12/02 00:10:54;;;;;;;;;;;;;;;2.92;100.00;102191.16;5020989;28;19921;-60
2022/12/02 00:13:34;;;;;;;;;;;;;;;2.92;100.00;102193.78;5019851;28;21338;-59
2022/12/02 00:16:00;;;;;;;;;;;;;;;2.95;100.00;102180.47;5017707;28;20299;-58
2022/12/02 00:18:26;;;;;;;;;;;;;;;2.95;100.00;102184.88;5019577;28;20397;-59
2022/12/02 00:20:52;;;;;;;;;;;;;;;2.94;100.00;102172.72;5025642;28;19929;-59
2022/12/02 00:23:17;;;;;;;;;;;;;;;2.93;100.00;102171.03;5025539;28;19921;-58
2022/12/02 00:25:44;;;;;;;;;;;;;;;2.90;100.00;102168.63;5033969;28;19921;-57
2022/12/02 00:28:10;;;;;;;;;;;;;;;2.91;100.00;102167.66;5023500;28;19967;-59
2022/12/02 00:30:35;;;;;;;;;;;;;;;2.91;100.00;102170.28;5023985;28;19965;-59
2022/12/02 00:33:02;;;;;;;;;;;;;;;2.91;100.00;102172.91;5029867;28;21664;-58
2022/12/02 00:35:27;;;;;;;;;;;;;;;2.89;100.00;102169.53;5021000;28;19922;-58
2022/12/02 00:37:53;;;;;;;;;;;;;;;2.86;100.00;102164.50;5026730;28;20028;-55
2022/12/02 00:40:18;;;;;;;;;;;;;;;2.84;100.00;102160.22;5027796;28;20260;-59
2022/12/02 00:42:43;;;;;;;;;;;;;;;2.89;100.00;102161.69;5021015;28;20464;-56
2022/12/02 00:47:54;;;;;;;;;;;;;;;2.88;100.00;102162.63;5022325;28;19931;-57
2022/12/02 00:50:19;;;;;;;;;;;;;;;2.90;100.00;102158.97;5023417;28;19929;-56
2022/12/02 00:52:44;;;;;;;;;;;;;;;2.89;100.00;102156.44;5028853;28;19921;-58
2022/12/02 00:55:09;;;;;;;;;;;;;;;2.92;100.00;102159.72;5028112;28;20016;-55
2022/12/02 00:57:35;;;;;;;;;;;;;;;2.93;100.00;102158.78;5022381;28;20019;-58
2022/12/02 01:00:00;;;;;;;;;;;;;;;2.95;100.00;102169.16;5016309;28;19976;-59
2022/12/02 01:02:25;;;;;;;;;;;;;;;2.97;100.00;102162.03;5032795;28;20034;-60
2022/12/02 01:04:50;;;;;;;;;;;;;;;3.00;100.00;102164.47;5023173;28;20370;-59
2022/12/02 01:07:16;;;;;;;;;;;;;;;3.03;100.00;102161.63;5025468;28;20016;-59
2022/12/02 01:09:41;;;;;;;;;;;;;;;2.94;100.00;102156.97;5021075;28;20023;-57
2022/12/02 01:12:06;;;;;;;;;;;;;;;2.94;100.00;102159.59;5021318;28;20069;-60
2022/12/02 01:14:31;;;;;;;;;;;;;;;2.95;100.00;102153.44;5021558;28;19921;-59
2022/12/02 01:16:57;;;;;;;;;;;;;;;2.96;100.00;102148.09;5032697;28;20279;-57
2022/12/02 01:19:22;;;;;;;;;;;;;;;2.96;100.00;102149.88;5027454;28;19967;-55
2022/12/02 01:21:47;;;;;;;;;;;;;;;2.95;100.00;102150.81;5027536;28;20024;-59
2022/12/02 01:24:12;;;;;;;;;;;;;;;2.92;100.00;102146.63;5032678;28;19975;-54
2022/12/02 01:26:38;;;;;;;;;;;;;;;2.98;100.00;102142.75;5025299;28;19921;-58
2022/12/02 01:29:03;;;;;;;;;;;;;;;2.96;100.00;102140.22;5031006;28;19932;-58
2022/12/02 01:31:28;;;;;;;;;;;;;;;2.96;100.00;102145.47;5028767;28;19921;-57
2022/12/02 01:33:53;;;;;;;;;;;;;;;2.95;100.00;102140.34;5032042;28;19924;-56
2022/12/02 01:36:18;;;;;;;;;;;;;;;2.92;100.00;102137.91;5025570;28;20363;-56
2022/12/02 01:38:44;;;;;;;;;;;;;;;2.86;100.00;102139.16;5028322;28;20428;-54
2022/12/02 01:41:09;;;;;;;;;;;;;;;2.90;100.00;102134.56;5028025;28;19921;-60
2022/12/02 01:43:34;;;;;;;;;;;;;;;2.91;100.00;102129.19;5035002;28;20004;-59
2022/12/02 01:46:00;;;;;;;;;;;;;;;2.92;100.00;102132.66;5033427;28;19930;-60
2022/12/02 01:48:25;;;;;;;;;;;;;;;2.91;100.00;102128.38;5030837;28;19933;-60
2022/12/02 01:50:50;;;;;;;;;;;;;;;2.90;100.00;102138.00;5028872;28;19932;-60
2022/12/02 01:53:16;;;;;;;;;;;;;;;2.92;100.00;102130.03;5025153;28;20387;-59
2022/12/02 01:55:41;;;;;;;;;;;;;;;2.90;100.00;102130.16;5033568;28;19983;-57
2022/12/02 01:58:08;;;;;;;;;;;;;;;2.93;100.00;102126.50;5035972;28;19929;-54
2022/12/02 02:00:33;;;;;;;;;;;;;;;2.90;100.00;102137.19;5021958;28;19927;-54
2022/12/02 02:02:59;;;;;;;;;;;;;;;2.86;100.00;102133.06;5024319;28;19925;-58
2022/12/02 02:05:26;;;;;;;;;;;;;;;2.85;100.00;102142.72;5024981;28;20332;-59
2022/12/02 02:07:52;;;;;;;;;;;;;;;2.84;100.00;102136.63;5034205;28;20016;-59
2022/12/02 02:10:18;;;;;;;;;;;;;;;2.81;100.00;102139.47;5025888;28;19928;-57
2022/12/02 02:12:44;;;;;;;;;;;;;;;2.81;100.00;102139.47;5027706;28;19921;-59
2022/12/02 02:15:10;;;;;;;;;;;;;;;2.80;100.00;102129.91;5028900;28;19948;-59
2022/12/02 02:17:36;;;;;;;;;;;;;;;2.84;100.00;102149.75;5021164;28;20374;-59
2022/12/02 02:20:03;;;;;;;;;;;;;;;2.89;100.00;102140.72;5024361;28;20267;-57
2022/12/02 02:22:32;;;;;;;;;;;;;;;2.92;100.00;102138.75;5019941;28;19960;-59
2022/12/02 02:24:57;;;;;;;;;;;;;;;2.94;100.00;102143.88;5026769;28;19925;-58
2022/12/02 02:27:22;;;;;;;;;;;;;;;2.91;100.00;102147.53;5026471;28;20008;-56
2022/12/02 02:29:48;;;;;;;;;;;;;;;2.88;100.00;102141.69;5034022;28;20401;-58
2022/12/02 02:32:13;;;;;;;;;;;;;;;2.90;100.00;102139.81;5023619;28;19921;-59
2022/12/02 02:34:39;;;;;;;;;;;;;;;2.90;100.00;102139.81;5031271;28;19943;-57
2022/12/02 02:37:04;;;;;;;;;;;;;;;2.90;100.00;102139.81;5021705;28;19928;-59
2022/12/02 02:39:29;;;;;;;;;;;;;;;2.90;100.00;102138.00;5027449;28;19932;-60
2022/12/02 02:41:55;;;;;;;;;;;;;;;2.90;100.00;102134.56;5027919;28;19925;-60
2022/12/02 02:44:21;;;;;;;;;;;;;;;2.91;100.00;102138.84;5030998;28;20370;-57
2022/12/02 02:46:46;;;;;;;;;;;;;;;2.93;100.00;102135.19;5028089;28;19936;-58
2022/12/02 02:49:11;;;;;;;;;;;;;;;2.91;100.00;102136.22;5033796;28;20011;-53
2022/12/02 02:51:37;;;;;;;;;;;;;;;2.90;100.00;102130.16;5027318;28;19926;-53
2022/12/02 02:54:02;;;;;;;;;;;;;;;2.90;100.00;102129.31;5035910;28;20305;-56
2022/12/02 02:56:27;;;;;;;;;;;;;;;2.87;100.00;102119.88;5024260;28;19927;-60
2022/12/02 02:58:52;;;;;;;;;;;;;;;2.91;100.00;102125.75;5031040;28;19921;-59
2022/12/02 03:01:22;;;;;;;;;;;;;;;2.82;100.00;102124.59;5022827;28;20012;-57
2022/12/02 03:03:50;;;;;;;;;;;;;;;2.79;100.00;102130.88;5026182;28;19921;-58
2022/12/02 03:06:16;;;;;;;;;;;;;;;2.79;100.00;102124.78;5025498;28;19934;-61
2022/12/02 03:08:43;;;;;;;;;;;;;;;2.80;100.00;102129.06;5027046;28;19955;-56
2022/12/02 03:11:09;;;;;;;;;;;;;;;2.78;100.00;102120.47;5020832;28;19921;-58
2022/12/02 03:13:35;;;;;;;;;;;;;;;2.76;100.00;102127.59;5024891;28;19968;-58
2022/12/02 03:16:01;;;;;;;;;;;;;;;2.73;100.00;102118.16;5027678;28;20294;-59
2022/12/02 03:18:27;;;;;;;;;;;;;;;2.65;100.00;102109.13;5027063;28;19968;-56
2022/12/02 03:20:52;;;;;;;;;;;;;;;2.64;100.00;102112.69;5033766;28;20397;-54
2022/12/02 03:23:17;;;;;;;;;;;;;;;2.66;100.00;102113.41;5025471;28;19932;-58
2022/12/02 03:25:43;;;;;;;;;;;;;;;2.64;100.00;102118.75;5028700;28;19932;-58
2022/12/02 03:28:10;;;;;;;;;;;;;;;2.68;100.00;102111.53;5029465;28;19921;-59
2022/12/02 03:30:36;;;;;;;;;;;;;;;2.68;100.00;102122.00;5027791;28;19925;-59
2022/12/02 03:33:01;;;;;;;;;;;;;;;2.66;100.00;102109.03;5025111;28;19922;-57
2022/12/02 03:35:26;;;;;;;;;;;;;;;2.60;100.00;102112.84;5023989;28;20375;-59
2022/12/02 03:37:52;;;;;;;;;;;;;;;2.57;100.00;102110.44;5024592;28;19921;-59
2022/12/02 03:40:17;;;;;;;;;;;;;;;2.57;100.00;102109.63;5018352;28;19928;-59
2022/12/02 03:42:42;;;;;;;;;;;;;;;2.54;100.00;102107.19;5025617;28;19921;-59
2022/12/02 03:45:08;;;;;;;;;;;;;;;2.55;100.00;102099.22;5022872;28;19959;-57
2022/12/02 03:47:34;;;;;;;;;;;;;;;2.59;100.00;102092.88;5021428;28;19929;-59
2022/12/02 03:49:59;;;;;;;;;;;;;;;2.58;100.00;102096.44;5023292;28;20257;-57
2022/12/02 03:52:24;;;;;;;;;;;;;;;2.60;100.00;102096.31;5029452;28;20316;-58
2022/12/02 03:54:50;;;;;;;;;;;;;;;2.56;100.00;102094.84;5027362;28;19925;-54
2022/12/02 03:57:15;;;;;;;;;;;;;;;2.49;100.00;102093.56;5023377;28;19921;-58
2022/12/02 03:59:41;;;;;;;;;;;;;;;2.46;100.00;102088.53;5031540;28;20086;-57
2022/12/02 04:02:06;;;;;;;;;;;;;;;2.43;100.00;102089.56;5023835;28;20062;-60
2022/12/02 04:04:31;;;;;;;;;;;;;;;2.43;100.00;102086.94;5032660;28;19929;-59
2022/12/02 04:06:57;;;;;;;;;;;;;;;2.42;100.00;102087.03;5034006;28;20477;-60
2022/12/02 04:09:22;;;;;;;;;;;;;;;2.44;100.00;102090.41;5027245;28;20291;-59
2022/12/02 04:11:47;;;;;;;;;;;;;;;2.46;100.00;102088.53;5026007;28;20239;-58
2022/12/02 04:14:12;;;;;;;;;;;;;;;2.49;100.00;102094.41;5018823;28;19921;-59
2022/12/02 04:16:38;;;;;;;;;;;;;;;2.45;100.00;102086.81;5025469;28;20290;-60
2022/12/02 04:19:03;;;;;;;;;;;;;;;2.47;100.00;102087.56;5028703;28;20289;-58
2022/12/02 04:21:28;;;;;;;;;;;;;;;2.49;100.00;102085.72;5031206;28;19975;-57
2022/12/02 04:23:53;;;;;;;;;;;;;;;2.53;100.00;102079.31;5028714;28;20018;-58
2022/12/02 04:26:19;;;;;;;;;;;;;;;2.55;100.00;102078.28;5032741;28;19925;-56
2022/12/02 04:28:44;;;;;;;;;;;;;;;2.57;100.00;102071.16;5040595;28;20002;-57
2022/12/02 04:31:09;;;;;;;;;;;;;;;2.56;100.00;102069.50;5027091;28;19928;-60
2022/12/02 04:33:34;;;;;;;;;;;;;;;2.57;100.00;102067.72;5027348;28;20313;-59
2022/12/02 04:35:59;;;;;;;;;;;;;;;2.58;100.00;102066.75;5025127;28;19925;-58
2022/12/02 04:38:25;;;;;;;;;;;;;;;2.57;100.00;102070.34;5021826;28;19926;-60
2022/12/02 04:40:50;;;;;;;;;;;;;;;2.46;100.00;102067.59;5026259;28;19925;-59
2022/12/02 04:43:15;;;;;;;;;;;;;;;2.38;100.00;102063.69;5027683;28;20374;-60
2022/12/02 04:45:40;;;;;;;;;;;;;;;2.36;100.00;102062.09;5023616;28;20060;-58
2022/12/02 04:48:06;;;;;;;;;;;;;;;2.36;100.00;102062.94;5026719;28;19932;-58
2022/12/02 04:50:31;;;;;;;;;;;;;;;2.33;100.00;102052.66;5019469;28;20223;-57
2022/12/02 04:52:56;;;;;;;;;;;;;;;2.36;100.00;102055.06;5020879;28;19976;-58
2022/12/02 04:55:21;;;;;;;;;;;;;;;2.41;100.00;102054.78;5026469;28;19960;-59
2022/12/02 04:57:47;;;;;;;;;;;;;;;2.42;100.00;102050.38;5034484;28;19924;-57
2022/12/02 05:00:12;;;;;;;;;;;;;;;2.39;100.00;102040.94;5025438;28;19921;-59
2022/12/02 05:02:37;;;;;;;;;;;;;;;2.38;100.00;102039.28;5019288;28;19928;-57
2022/12/02 05:05:03;;;;;;;;;;;;;;;2.36;100.00;102034.13;5027342;28;19967;-58
2022/12/02 05:07:28;;;;;;;;;;;;;;;2.35;100.00;102028.97;5028627;28;19921;-59
2022/12/02 05:09:53;;;;;;;;;;;;;;;2.35;100.00;102032.47;5024320;28;19929;-59
2022/12/02 05:12:19;;;;;;;;;;;;;;;2.37;100.00;102027.09;5030916;28;19927;-56
2022/12/02 05:14:44;;;;;;;;;;;;;;;2.37;100.00;102035.78;5023223;28;19918;-59
2022/12/02 05:17:09;;;;;;;;;;;;;;;2.28;100.00;102030.34;5013460;28;19971;-58
2022/12/02 05:19:34;;;;;;;;;;;;;;;2.31;100.00;102038.00;5020959;28;19925;-57
2022/12/02 05:21:59;;;;;;;;;;;;;;;2.35;100.00;102031.59;5014437;28;20299;-59
2022/12/02 05:24:25;;;;;;;;;;;;;;;2.27;100.00;102032.13;5023637;28;20282;-60
2022/12/02 05:26:50;;;;;;;;;;;;;;;2.26;100.00;102026.97;5023006;28;19928;-57
2022/12/02 05:29:15;;;;;;;;;;;;;;;2.27;100.00;102028.66;5023740;28;20303;-60
2022/12/02 05:31:41;;;;;;;;;;;;;;;2.26;100.00;102034.81;5030239;28;19928;-60
2022/12/02 05:34:06;;;;;;;;;;;;;;;2.22;100.00;102034.19;5021898;28;20030;-59
2022/12/02 05:36:31;;;;;;;;;;;;;;;2.20;100.00;102027.38;5020684;28;19925;-60
2022/12/02 05:38:56;;;;;;;;;;;;;;;2.18;100.00;102033.53;5026548;28;19928;-60
2022/12/02 05:41:21;;;;;;;;;;;;;;;2.13;100.00;102030.38;5025458;28;19921;-59
2022/12/02 05:43:47;;;;;;;;;;;;;;;2.14;100.00;102024.22;5030167;28;19921;-60
2022/12/02 05:46:17;;;;;;;;;;;;;;;2.14;100.00;102033.81;5029240;28;20024;-60
2022/12/02 05:48:43;;;;;;;;;;;;;;;2.15;100.00;102030.28;5019048;28;20054;-56
2022/12/02 05:51:10;;;;;;;;;;;;;;;2.18;100.00;102030.09;5023406;28;19937;-57
2022/12/02 05:53:35;;;;;;;;;;;;;;;2.15;100.00;102025.88;5032293;28;19925;-61
2022/12/02 05:56:00;;;;;;;;;;;;;;;2.16;100.00;102024.94;5028856;28;19925;-60
2022/12/02 05:58:26;;;;;;;;;;;;;;;2.14;100.00;102023.34;5019950;28;19929;-60
2022/12/02 06:00:55;;;;;;;;;;;;;;;2.13;100.00;102019.91;5019538;28;19921;-60
2022/12/02 06:03:21;;;;;;;;;;;;;;;2.14;100.00;102016.38;5022046;28;19929;-59
2022/12/02 06:05:47;;;;;;;;;;;;;;;2.12;100.00;102013.00;5027771;28;19940;-58
2022/12/02 06:08:12;;;;;;;;;;;;;;;2.13;100.00;102006.00;5024260;28;19929;-55
2022/12/02 06:10:37;;;;;;;;;;;;;;;2.12;100.00;102006.94;5024108;28;19936;-59
2022/12/02 06:13:17;;;;;;;;;;;;;;;2.08;100.00;102016.75;5025182;28;19932;-59
2022/12/02 06:15:43;;;;;;;;;;;;;;;2.06;100.00;102012.56;5022225;28;20282;-58
2022/12/02 06:18:13;;;;;;;;;;;;;;;2.05;100.00;102001.25;5034064;28;19921;-59
2022/12/02 06:20:38;;;;;;;;;;;;;;;2.07;100.00;102012.47;5032782;28;19928;-56
2022/12/02 06:23:07;;;;;;;;;;;;;;;2.07;100.00;102009.00;5027653;28;20119;-60
2022/12/02 06:25:34;;;;;;;;;;;;;;;2.07;100.00;102004.63;5024313;28;19921;-61
2022/12/02 06:28:15;;;;;;;;;;;;;;;2.08;100.00;102000.22;5031173;28;19968;-61
2022/12/02 06:30:40;;;;;;;;;;;;;;;2.11;100.00;102005.25;5031201;28;20306;-56
2022/12/02 06:33:13;;;;;;;;;;;;;;;2.13;100.00;102011.22;5024129;28;19925;-58
2022/12/02 06:35:38;;;;;;;;;;;;;;;2.14;100.00;102005.03;5028688;28;20225;-58
2022/12/02 06:38:19;;;;;;;;;;;;;;;2.14;100.00;102000.66;5025879;28;19967;-58
2022/12/02 06:40:44;;;;;;;;;;;;;;;2.12;100.00;101999.94;5026331;28;20091;-57
2022/12/02 06:43:12;;;;;;;;;;;;;;;2.13;100.00;101996.34;5023135;28;19925;-60
2022/12/02 06:45:37;;;;;;;;;;;;;;;2.12;100.00;101993.84;5028033;28;20375;-59
2022/12/02 06:48:02;;;;;;;;;;;;;;;2.09;100.00;101997.50;5029174;28;19952;-59
2022/12/02 06:50:32;;;;;;;;;;;;;;;2.09;100.00;101994.91;5029464;28;19921;-60
2022/12/02 06:53:10;;;;;;;;;;;;;;;2.09;100.00;101994.91;5022930;28;19998;-59
2022/12/02 06:55:36;;;;;;;;;;;;;;;2.09;100.00;101988.78;5024553;28;20024;-60
2022/12/02 06:58:20;;;;;;;;;;;;;;;2.08;100.00;101987.13;5019508;28;20020;-58
2022/12/02 07:00:45;;;;;;;;;;;;;;;2.08;100.00;101993.19;5016723;28;19928;-56
2022/12/02 07:03:22;;;;;;;;;;;;;;;2.08;100.00;101993.19;5019115;28;19948;-57
2022/12/02 07:05:47;;;;;;;;;;;;;;;2.09;100.00;101994.03;5020761;28;19921;-56
2022/12/02 07:08:12;;;;;;;;;;;;;;;2.12;100.00;102001.72;5017467;28;19987;-59
2022/12/02 07:10:37;;;;;;;;;;;;;;;2.12;100.00;101996.47;5028080;28;19921;-57
2022/12/02 07:13:07;;;;;;;;;;;;;;;2.09;100.00;101994.91;5020582;28;19926;-58
2022/12/02 07:15:33;;;;;;;;;;;;;;;2.09;100.00;102001.88;5027247;28;19928;-58
2022/12/02 07:18:00;;;;;;;;;;;;;;;2.10;100.00;102001.78;5033667;28;19921;-60
2022/12/02 07:20:31;;;;;;;;;;;;;;;2.10;100.00;101995.72;5021839;28;19941;-60
2022/12/02 07:23:09;;;;;;;;;;;;;;;2.08;100.00;101994.97;5020317;28;20499;-56
2022/12/02 07:25:37;;;;;;;;;;;;;;;2.02;100.00;102000.63;5028861;28;19917;-61
2022/12/02 07:28:15;;;;;;;;;;;;;;;1.96;100.00;102001.81;5030450;28;19924;-60
2022/12/02 07:30:41;;;;;;;;;;;;;;;1.95;100.00;102000.16;5025103;28;20310;-60
2022/12/02 07:33:06;;;;;;;;;;;;;;;1.95;100.00;102001.00;5026386;28;19929;-60
2022/12/02 07:35:32;;;;;;;;;;;;;;;1.94;100.00;102004.56;5026124;28;20397;-56
2022/12/02 07:37:57;;;;;;;;;;;;;;;1.94;100.00;102001.09;5018878;28;20397;-60
2022/12/02 07:40:22;;;;;;;;;;;;;;;1.96;100.00;102007.91;5023689;28;20476;-60
2022/12/02 07:42:48;;;;;;;;;;;;;;;1.97;100.00;102011.38;5019333;28;19925;-58
2022/12/02 07:45:14;;;;;;;;;;;;;;;1.94;100.00;102015.03;5023555;28;19968;-60
2022/12/02 07:47:40;;;;;;;;;;;;;;;2.00;100.00;102020.81;5023306;28;20318;-59
2022/12/02 07:50:05;;;;;;;;;;;;;;;2.06;100.00;102017.78;5024830;28;20075;-56
2022/12/02 07:52:30;;;;;;;;;;;;;;;2.11;100.00;102018.31;5023493;28;19929;-58
2022/12/02 07:54:56;;;;;;;;;;;;;;;2.06;100.00;102023.84;5024668;28;20010;-56
2022/12/02 07:57:21;;;;;;;;;;;;;;;2.08;100.00;102023.75;5026248;28;19926;-60
2022/12/02 07:59:46;;;;;;;;;;;;;;;2.12;100.00;102023.47;5023305;28;19921;-59
2022/12/02 08:02:12;;;;;;;;;;;;;;;2.14;100.00;102024.22;5025129;28;20342;-57
2022/12/02 08:04:37;;;;;;;;;;;;;;;2.17;100.00;102024.03;5029108;28;20362;-58
2022/12/02 08:07:02;;;;;;;;;;;;;;;2.22;100.00;102028.09;5021193;28;20258;-59
2022/12/02 08:09:27;;;;;;;;;;;;;;;2.25;100.00;102026.16;5020254;28;20448;-60
2022/12/02 08:11:53;;;;;;;;;;;;;;;2.26;100.00;102009.50;5025673;28;19921;-60
2022/12/02 08:14:18;;;;;;;;;;;;;;;2.28;100.00;102023.31;5022184;28;20460;-60
2022/12/02 08:16:44;;;;;;;;;;;;;;;2.33;100.00;102023.03;5023273;28;20355;-60
2022/12/02 08:19:09;;;;;;;;;;;;;;;2.38;100.00;102023.56;5025609;28;20420;-60
2022/12/02 08:21:34;;;;;;;;;;;;;;;2.42;100.00;102027.66;5030482;28;19996;-60
2022/12/02 08:24:00;;;;;;;;;;;;;;;2.42;100.00;102022.41;5018093;28;20322;-58
2022/12/02 08:26:25;;;;;;;;;;;;;;;2.46;100.00;102025.69;5023881;28;19929;-59
2022/12/02 08:28:50;;;;;;;;;;;;;;;2.52;100.00;102030.50;5022048;28;20000;-60
2022/12/02 08:31:15;;;;;;;;;;;;;;;2.54;100.00;102028.63;5022020;28;19921;-60
2022/12/02 08:33:41;;;;;;;;;;;;;;;2.54;100.00;102020.78;5022336;28;19935;-60
2022/12/02 08:36:06;;;;;;;;;;;;;;;2.58;100.00;102027.47;5026261;28;19972;-60
2022/12/02 08:38:31;;;;;;;;;;;;;;;2.60;100.00;102023.81;5036985;28;20420;-58
2022/12/02 08:40:57;;;;;;;;;;;;;;;2.65;100.00;102023.53;5024600;28;19925;-58
2022/12/02 08:43:22;;;;;;;;;;;;;;;2.70;100.00;102017.97;5029548;28;19921;-59
2022/12/02 08:45:47;;;;;;;;;;;;;;;2.75;100.00;102010.66;5033069;28;20274;-60
2022/12/02 08:48:12;;;;;;;;;;;;;;;2.78;100.00;102019.13;5026582;28;20370;-58
2022/12/02 08:50:38;;;;;;;;;;;;;;;2.86;100.00;102023.03;5026477;28;19921;-57
2022/12/02 08:53:03;;;;;;;;;;;;;;;2.89;100.00;102020.19;5032361;28;19925;-60
2022/12/02 08:55:28;;;;;;;;;;;;;;;2.93;100.00;102022.53;5031760;28;20402;-58
2022/12/02 08:57:53;;;;;;;;;;;;;;;3.03;100.00;102020.13;5021960;28;19921;-59
2022/12/02 09:00:19;;;;;;;;;;;;;;;2.98;100.00;102019.59;5020828;28;19922;-58
2022/12/02 09:02:44;;;;;;;;;;;;;;;2.99;100.00;102022.09;5019300;28;19928;-60
2022/12/02 09:05:10;;;;;;;;;;;;;;;3.09;100.00;102018.84;5019640;28;20465;-60
2022/12/02 09:07:35;;;;;;;;;;;;;;;3.11;100.00;102015.19;5027421;28;20237;-58
2022/12/02 09:10:00;;;;;;;;;;;;;;;3.16;100.00;102018.34;5036176;28;20192;-60
2022/12/02 09:12:26;;;;;;;;;;;;;;;3.22;100.00;102022.31;5027868;28;19920;-58
2022/12/02 09:14:52;;;;;;;;;;;;;;;3.30;100.00;102016.53;5028236;28;20008;-58
2022/12/02 09:17:17;;;;;;;;;;;;;;;3.35;100.00;102019.69;5028033;28;20003;-60
2022/12/02 09:19:42;;;;;;;;;;;;;;;3.44;100.00;102022.50;5027866;28;19929;-60
2022/12/02 09:22:07;;;;;;;;;;;;;;;3.50;100.00;102019.44;5037929;28;19921;-58
2022/12/02 09:24:33;;;;;;;;;;;;;;;3.54;100.00;102014.00;5031675;28;19972;-59
2022/12/02 09:26:58;;;;;;;;;;;;;;;3.56;100.00;102014.72;5026883;28;19929;-60
2022/12/02 09:29:23;;;;;;;;;;;;;;;3.64;100.00;102021.13;5021968;28;19921;-59
2022/12/02 09:31:48;;;;;;;;;;;;;;;3.66;100.00;102018.38;5026060;28;19968;-57
2022/12/02 09:34:13;;;;;;;;;;;;;;;3.69;100.00;102015.53;5013745;28;19933;-56
2022/12/02 09:36:39;;;;;;;;;;;;;;;3.74;100.00;102015.22;5021372;28;19975;-55
2022/12/02 09:39:04;;;;;;;;;;;;;;;3.87;100.00;102010.75;5026857;28;19991;-60
2022/12/02 09:41:29;;;;;;;;;;;;;;;3.98;100.00;102018.72;5039756;28;19925;-58
2022/12/02 09:43:55;;;;;;;;;;;;;;;4.07;100.00;102012.78;5023846;28;19999;-59
2022/12/02 09:46:20;;;;;;;;;;;;;;;4.11;100.00;102014.25;5035185;28;19925;-57
2022/12/02 09:48:46;;;;;;;;;;;;;;;4.22;100.00;102010.84;5033211;28;19925;-60
2022/12/02 09:51:11;;;;;;;;;;;;;;;4.31;100.00;102010.19;5033210;28;19921;-59
2022/12/02 09:53:38;;;;;;;;;;;;;;;4.29;100.00;102011.25;5038612;28;19921;-60
2022/12/02 09:56:03;;;;;;;;;;;;;;;4.29;100.00;102004.19;5035248;28;19929;-59
2022/12/02 09:58:29;;;;;;;;;;;;;;;4.35;100.00;102010.78;5025766;28;19926;-59
2022/12/02 10:00:54;;;;;;;;;;;;;;;4.38;100.00;102013.19;5025554;28;19975;-59
2022/12/02 10:03:24;;;;;;;;;;;;;;;4.44;100.00;102004.88;5033960;28;20390;-57
2022/12/02 10:05:49;;;;;;;;;;;;;;;4.56;100.00;102008.34;5032715;28;19927;-58
2022/12/02 10:08:17;;;;;;;;;;;;;;;4.76;100.00;101998.97;5033025;28;19925;-58
2022/12/02 10:10:43;;;;;;;;;;;;;;;4.99;100.00;102003.31;5029875;28;19940;-60
2022/12/02 10:13:12;;;;;;;;;;;;;;;5.15;100.00;101992.47;5027176;28;19960;-59
2022/12/02 10:15:38;;;;;;;;;;;;;;;5.29;100.00;101996.66;5037239;28;19921;-60
2022/12/02 10:18:13;;;;;;;;;;;;;;;5.36;100.00;101987.31;5039916;28;20078;-59
2022/12/02 10:20:39;;;;;;;;;;;;;;;5.32;100.00;101985.91;5030982;28;19933;-59
2022/12/02 10:23:12;;;;;;;;;;;;;;;5.28;100.00;101987.09;5029741;28;19921;-59
2022/12/02 10:25:38;;;;;;;;;;;;;;;5.24;100.00;101988.31;5029964;28;19921;-54
2022/12/02 10:28:04;;;;;;;;;;;;;;;5.19;100.00;101988.66;5030932;28;19929;-54
2022/12/02 10:30:30;;;;;;;;;;;;;;;5.12;100.00;101979.56;5029311;28;19925;-56
2022/12/02 10:32:59;;;;;;;;;;;;;;;5.11;100.00;101972.63;5029973;28;19932;-57
2022/12/02 10:35:25;;;;;;;;;;;;;;;5.16;100.00;101974.88;5026480;28;19925;-57
2022/12/02 10:37:50;;;;;;;;;;;;;;;5.22;100.00;101972.63;5024683;28;20391;-59
2022/12/02 10:40:24;;;;;;;;;;;;;;;5.39;100.00;101965.19;5017469;28;19917;-55
2022/12/02 10:43:10;;;;;;;;;;;;;;;5.52;100.00;101960.63;5031446;28;19929;-59
2022/12/02 10:45:36;;;;;;;;;;;;;;;5.57;100.00;101963.75;5028540;28;19941;-58
2022/12/02 10:48:30;;;;;;;;;;;;;;;5.56;100.00;101954.19;5033376;28;20341;-60
2022/12/02 10:50:56;;;;;;;;;;;;;;;5.64;100.00;101945.69;5016992;28;19967;-60
2022/12/02 10:53:24;;;;;;;;;;;;;;;5.57;100.00;101939.22;5037229;28;19925;-56
2022/12/02 10:55:49;;;;;;;;;;;;;;;5.47;100.00;101939.13;5032971;28;19975;-55
2022/12/02 10:58:20;;;;;;;;;;;;;;;5.53;100.00;101940.47;5031371;28;20301;-58
2022/12/02 11:00:46;;;;;;;;;;;;;;;5.51;100.00;101937.09;5030021;28;20064;-56
2022/12/02 11:03:11;;;;;;;;;;;;;;;5.66;100.00;101927.97;5036959;28;20102;-59
2022/12/02 11:05:39;;;;;;;;;;;;;;;5.88;100.00;101922.63;5032927;28;19952;-56
2022/12/02 11:08:06;;;;;;;;;;;;;;;6.00;100.00;101920.00;5022231;28;20290;-58
2022/12/02 11:10:34;;;;;;;;;;;;;;;6.08;100.00;101917.56;5022919;28;19971;-58
2022/12/02 11:13:02;;;;;;;;;;;;;;;6.13;100.00;101911.94;5034918;28;20270;-59
2022/12/02 11:15:34;;;;;;;;;;;;;;;5.94;100.00;101912.59;5025983;28;19925;-58
2022/12/02 11:18:00;;;;;;;;;;;;;;;5.96;100.00;101911.50;5028850;28;19933;-59
2022/12/02 11:20:37;;;;;;;;;;;;;;;6.11;100.00;101906.78;5026157;28;20212;-57
2022/12/02 11:23:06;;;;;;;;;;;;;;;6.21;100.00;101901.59;5025760;28;19921;-55
2022/12/02 11:25:46;;;;;;;;;;;;;;;6.39;100.00;101897.41;5023276;28;20024;-55
2022/12/02 11:28:31;;;;;;;;;;;;;;;6.46;100.00;101885.41;5030679;28;20012;-58
2022/12/02 11:31:17;;;;;;;;;;;;;;;6.47;100.00;101881.78;5034271;28;19925;-56
2022/12/02 11:33:42;;;;;;;;;;;;;;;6.56;100.00;101888.09;5019088;28;20040;-54
2022/12/02 11:36:07;;;;;;;;;;;;;;;6.62;100.00;101884.94;5028847;28;20005;-58
2022/12/02 11:38:44;;;;;;;;;;;;;;;6.63;100.00;101875.22;5024769;28;19928;-59
2022/12/02 11:41:09;;;;;;;;;;;;;;;6.77;100.00;101869.59;5028107;28;19932;-56
2022/12/02 11:43:50;;;;;;;;;;;;;;;6.85;100.00;101864.50;5030288;28;19925;-60
2022/12/02 11:46:19;;;;;;;;;;;;;;;6.92;100.00;101856.91;5032498;28;20825;-59
2022/12/02 11:48:49;;;;;;;;;;;;;;;6.81;100.00;101857.00;5025511;28;19922;-57
2022/12/02 11:51:33;;;;;;;;;;;;;;;6.95;100.00;101849.56;5027966;28;20322;-60
2022/12/02 11:53:59;;;;;;;;;;;;;;;6.69;100.00;101851.00;5043692;28;19921;-57
2022/12/02 11:56:37;;;;;;;;;;;;;;;6.29;100.00;101849.94;5032782;28;19979;-61
2022/12/02 11:59:04;;;;;;;;;;;;;;;5.82;100.00;101840.72;5016345;28;19979;-57
2022/12/02 12:01:30;;;;;;;;;;;;;;;5.66;100.00;101841.16;5029920;28;19936;-60
2022/12/02 12:03:55;;;;;;;;;;;;;;;5.89;100.00;101847.16;5028006;28;19999;-60
2022/12/02 12:06:21;;;;;;;;;;;;;;;5.98;100.00;101853.47;5021728;28;20318;-60
2022/12/02 12:08:51;;;;;;;;;;;;;;;5.63;100.00;101834.34;5028447;28;19928;-59
2022/12/02 12:11:23;;;;;;;;;;;;;;;5.55;100.00;101838.53;5034579;28;19925;-55
2022/12/02 12:14:07;;;;;;;;;;;;;;;5.50;100.00;101843.34;5025027;28;20018;-59
2022/12/02 12:16:33;;;;;;;;;;;;;;;5.54;100.00;101842.97;5029073;28;19921;-60
2022/12/02 12:19:03;;;;;;;;;;;;;;;5.74;100.00;101836.09;5025947;28;19921;-56
2022/12/02 12:21:31;;;;;;;;;;;;;;;5.95;100.00;101840.56;5030740;28;20038;-60
2022/12/02 12:24:15;;;;;;;;;;;;;;;5.94;100.00;101844.13;5021291;28;20078;-60
2022/12/02 12:26:41;;;;;;;;;;;;;;;6.01;100.00;101838.25;5025261;28;20275;-59
2022/12/02 12:29:06;;;;;;;;;;;;;;;6.15;100.00;101831.84;5022717;28;19929;-59
2022/12/02 12:31:31;;;;;;;;;;;;;;;6.02;100.00;101837.28;5035904;28;19936;-60
2022/12/02 12:33:57;;;;;;;;;;;;;;;5.95;100.00;101830.88;5032819;28;20401;-60
2022/12/02 12:36:22;;;;;;;;;;;;;;;5.99;100.00;101831.44;5026831;28;19921;-57
2022/12/02 12:38:47;;;;;;;;;;;;;;;6.10;100.00;101826.94;5028106;28;19987;-57